Time;durP1;ratioP1;P1;durP2;ratioP2;P2;SDS_P1;SDS_P2;PMS_P1;PMS_P2;Temp;Humidity;BMP_temperature;BMP_pressure;BME280_temperature;BME280_humidity;BME280_pressure;Samples;Min_cycle;Max_cycle;Signal;HPM_P1;HPM_P2
2022/12/01 00:02:19;;;;;;;34.30;13.13;;;;;;;;;;5029278;28;20045;-81
2022/12/01 00:04:47;;;;;;;34.55;12.57;;;;;;;;;;5023319;28;20032;-84
2022/12/01 00:07:12;;;;;;;32.15;12.30;;;;;;;;;;5026216;28;20075;-84
2022/12/01 00:12:21;;;;;;;35.97;13.52;;;;;;;;;;5029172;28;20573;-85
2022/12/01 00:14:53;;;;;;;39.20;13.20;;;;;;;;;;5019835;28;20041;-85
2022/12/01 00:17:19;;;;;;;34.72;12.57;;;;;;;;;;5026675;28;20037;-84
2022/12/01 00:19:45;;;;;;;28.65;12.60;;;;;;;;;;5028281;28;20035;-84
2022/12/01 00:22:10;;;;;;;32.10;11.70;;;;;;;;;;5028362;28;20025;-83
2022/12/01 00:24:35;;;;;;;32.92;12.18;;;;;;;;;;5027776;28;20063;-84
2022/12/01 00:27:01;;;;;;;37.67;13.15;;;;;;;;;;5028469;28;20044;-85
2022/12/01 00:29:26;;;;;;;35.08;12.00;;;;;;;;;;5028598;28;20037;-84
2022/12/01 00:31:51;;;;;;;33.00;12.70;;;;;;;;;;5022899;28;20025;-84
2022/12/01 00:34:22;;;;;;;33.67;13.43;;;;;;;;;;5026260;28;20544;-78
2022/12/01 00:36:48;;;;;;;34.35;12.90;;;;;;;;;;5022443;28;20065;-84
2022/12/01 00:39:13;;;;;;;29.77;11.55;;;;;;;;;;5019674;28;20037;-84
2022/12/01 00:41:38;;;;;;;32.88;12.13;;;;;;;;;;5021971;28;20518;-81
2022/12/01 00:44:04;;;;;;;27.92;11.52;;;;;;;;;;5026317;28;20045;-85
2022/12/01 00:46:29;;;;;;;32.42;11.68;;;;;;;;;;5026564;28;20060;-84
2022/12/01 00:48:54;;;;;;;27.90;11.15;;;;;;;;;;5022144;28;20044;-81
2022/12/01 00:51:20;;;;;;;26.02;10.45;;;;;;;;;;5021842;28;20068;-85
2022/12/01 00:53:45;;;;;;;36.70;12.50;;;;;;;;;;5025406;28;20163;-84
2022/12/01 00:56:10;;;;;;;35.58;12.15;;;;;;;;;;5025961;28;20056;-84
2022/12/01 00:58:36;;;;;;;33.33;12.20;;;;;;;;;;5026114;28;20025;-82
2022/12/01 01:01:02;;;;;;;28.83;11.48;;;;;;;;;;5026344;28;20021;-84
2022/12/01 01:03:28;;;;;;;32.20;12.45;;;;;;;;;;5020853;28;20038;-82
2022/12/01 01:05:53;;;;;;;36.10;13.15;;;;;;;;;;5022699;28;20033;-84
2022/12/01 01:08:19;;;;;;;28.27;11.88;;;;;;;;;;5026964;28;20029;-84
2022/12/01 01:10:46;;;;;;;32.22;11.52;;;;;;;;;;5021989;28;20029;-80
2022/12/01 01:13:13;;;;;;;32.72;12.13;;;;;;;;;;5028117;28;20549;-84
2022/12/01 01:15:39;;;;;;;29.60;11.63;;;;;;;;;;5027095;28;20034;-84
2022/12/01 01:18:04;;;;;;;28.15;10.65;;;;;;;;;;5027177;28;20045;-84
2022/12/01 01:20:31;;;;;;;32.20;12.15;;;;;;;;;;5026503;28;20095;-85
2022/12/01 01:22:56;;;;;;;29.00;11.35;;;;;;;;;;5025237;28;20046;-85
2022/12/01 01:25:22;;;;;;;29.67;11.30;;;;;;;;;;5019861;28;20025;-85
2022/12/01 01:27:47;;;;;;;29.23;11.52;;;;;;;;;;5025720;28;20032;-84
2022/12/01 01:30:13;;;;;;;27.48;11.15;;;;;;;;;;5025414;28;20034;-84
2022/12/01 01:32:39;;;;;;;34.22;12.77;;;;;;;;;;5027293;28;20060;-85
2022/12/01 01:35:04;;;;;;;36.78;11.80;;;;;;;;;;5026872;28;20148;-84
2022/12/01 01:37:30;;;;;;;26.63;10.48;;;;;;;;;;5027097;28;20025;-85
2022/12/01 01:39:55;;;;;;;32.00;12.57;;;;;;;;;;5025304;28;20029;-84
2022/12/01 01:42:20;;;;;;;30.73;11.55;;;;;;;;;;5024921;28;20060;-84
2022/12/01 01:44:46;;;;;;;32.10;11.73;;;;;;;;;;5025522;28;20052;-85
2022/12/01 01:47:12;;;;;;;26.60;10.32;;;;;;;;;;5026030;28;20048;-85
2022/12/01 01:49:39;;;;;;;31.00;13.13;;;;;;;;;;5020693;28;20487;-84
2022/12/01 01:52:04;;;;;;;29.35;11.73;;;;;;;;;;5035773;28;20013;-84
2022/12/01 01:54:43;;;;;;;31.63;11.18;;;;;;;;;;5024871;28;20043;-85
2022/12/01 01:57:11;;;;;;;29.77;11.82;;;;;;;;;;5019617;28;20037;-84
2022/12/01 01:59:41;;;;;;;28.38;11.43;;;;;;;;;;5025872;28;20928;-84
2022/12/01 02:02:08;;;;;;;28.48;11.63;;;;;;;;;;5024363;28;20095;-85
2022/12/01 02:04:36;;;;;;;28.63;10.68;;;;;;;;;;5020473;28;20047;-82
2022/12/01 02:07:02;;;;;;;27.30;10.25;;;;;;;;;;5027666;28;20044;-84
2022/12/01 02:09:27;;;;;;;27.33;10.73;;;;;;;;;;5013718;28;20026;-84
2022/12/01 02:12:42;;;;;;;27.13;11.05;;;;;;;;;;5022867;28;20156;-83
2022/12/01 02:15:29;;;;;;;28.85;10.45;;;;;;;;;;5002692;28;20143;-85
2022/12/01 02:18:20;;;;;;;28.38;11.32;;;;;;;;;;5024645;28;20060;-84
2022/12/01 02:21:06;;;;;;;27.17;9.85;;;;;;;;;;5016061;28;20060;-85
2022/12/01 02:24:09;;;;;;;27.67;11.32;;;;;;;;;;5022307;28;20518;-84
2022/12/01 02:26:58;;;;;;;25.65;10.27;;;;;;;;;;5019219;28;20026;-85
2022/12/01 02:29:56;;;;;;;27.83;11.65;;;;;;;;;;5018786;28;20044;-84
2022/12/01 02:32:34;;;;;;;33.25;10.75;;;;;;;;;;5015406;28;20029;-84
2022/12/01 02:35:31;;;;;;;23.77;9.73;;;;;;;;;;5030922;28;20033;-85
2022/12/01 02:38:05;;;;;;;31.77;10.57;;;;;;;;;;5025912;28;20474;-84
2022/12/01 02:40:40;;;;;;;25.48;9.65;;;;;;;;;;5025050;28;20039;-84
2022/12/01 02:43:13;;;;;;;27.98;11.90;;;;;;;;;;5022805;28;20113;-84
2022/12/01 02:45:47;;;;;;;32.10;12.50;;;;;;;;;;5012972;28;20095;-84
2022/12/01 02:48:37;;;;;;;29.02;11.52;;;;;;;;;;5018046;28;20048;-84
2022/12/01 02:51:14;;;;;;;40.85;11.63;;;;;;;;;;5025535;28;20132;-83
2022/12/01 02:53:40;;;;;;;28.30;10.90;;;;;;;;;;5020845;28;20029;-85
2022/12/01 02:56:09;;;;;;;33.97;11.85;;;;;;;;;;5022734;28;20098;-81
2022/12/01 02:58:34;;;;;;;27.27;10.90;;;;;;;;;;5023490;28;20391;-84
2022/12/01 03:01:28;;;;;;;28.65;11.13;;;;;;;;;;5024655;28;20037;-83
2022/12/01 03:04:02;;;;;;;30.95;11.38;;;;;;;;;;5024838;28;20465;-85
2022/12/01 03:06:27;;;;;;;27.60;10.80;;;;;;;;;;5023657;28;20061;-85
2022/12/01 03:09:11;;;;;;;29.45;13.27;;;;;;;;;;5019191;28;20077;-85
2022/12/01 03:12:00;;;;;;;32.13;11.95;;;;;;;;;;5023980;28;20483;-85
2022/12/01 03:14:37;;;;;;;32.03;12.57;;;;;;;;;;5015010;28;20063;-84
2022/12/01 03:17:07;;;;;;;25.52;9.75;;;;;;;;;;5014347;28;20037;-85
2022/12/01 03:19:47;;;;;;;33.40;11.77;;;;;;;;;;5018075;28;20025;-84
2022/12/01 03:22:18;;;;;;;28.67;11.43;;;;;;;;;;5024685;28;20057;-84
2022/12/01 03:24:46;;;;;;;28.70;11.23;;;;;;;;;;5023437;28;20140;-84
2022/12/01 03:27:15;;;;;;;31.83;11.27;;;;;;;;;;5025007;28;20131;-84
2022/12/01 03:29:44;;;;;;;32.53;11.55;;;;;;;;;;5025343;28;20029;-84
2022/12/01 03:32:36;;;;;;;36.65;12.35;;;;;;;;;;5027150;28;20056;-85
2022/12/01 03:35:09;;;;;;;34.97;12.18;;;;;;;;;;5024230;28;20033;-85
2022/12/01 03:37:34;;;;;;;31.05;12.20;;;;;;;;;;5021788;28;20049;-83
2022/12/01 03:40:05;;;;;;;32.25;11.15;;;;;;;;;;5026726;28;20061;-84
2022/12/01 03:42:56;;;;;;;38.53;13.02;;;;;;;;;;5025518;28;20391;-82
2022/12/01 03:45:49;;;;;;;31.67;12.77;;;;;;;;;;5031718;28;20034;-84
2022/12/01 03:48:15;;;;;;;35.00;12.52;;;;;;;;;;5027887;28;20048;-85
2022/12/01 03:50:57;;;;;;;28.88;10.77;;;;;;;;;;5029288;28;20037;-85
2022/12/01 03:53:27;;;;;;;30.48;12.15;;;;;;;;;;5027547;28;20026;-85
2022/12/01 03:56:00;;;;;;;30.98;12.05;;;;;;;;;;5027527;28;20036;-86
2022/12/01 03:58:47;;;;;;;29.05;11.63;;;;;;;;;;5029926;28;20025;-85
2022/12/01 04:01:13;;;;;;;35.08;12.80;;;;;;;;;;5029144;28;20068;-85
2022/12/01 04:03:39;;;;;;;31.50;10.38;;;;;;;;;;5024095;28;20041;-85
2022/12/01 04:06:05;;;;;;;31.95;11.90;;;;;;;;;;5024879;28;20041;-85
2022/12/01 04:08:32;;;;;;;34.47;11.43;;;;;;;;;;5025728;28;20072;-85
2022/12/01 04:10:57;;;;;;;40.65;13.23;;;;;;;;;;5026692;28;20040;-84
2022/12/01 04:13:24;;;;;;;31.08;11.70;;;;;;;;;;5020676;28;20059;-83
2022/12/01 04:15:50;;;;;;;37.40;12.63;;;;;;;;;;5028008;28;20457;-84
2022/12/01 04:18:16;;;;;;;32.67;12.02;;;;;;;;;;5027576;28;20037;-84
2022/12/01 04:20:45;;;;;;;37.63;12.18;;;;;;;;;;5027867;28;20079;-84
2022/12/01 04:23:58;;;;;;;40.92;14.18;;;;;;;;;;5024102;28;20608;-83
2022/12/01 04:26:01;;;;;;;39.15;13.60;;;;;;;;;;5016321;28;22692;-84
2022/12/01 04:28:26;;;;;;;35.20;12.68;;;;;;;;;;5027522;28;20602;-85
2022/12/01 04:30:52;;;;;;;39.40;13.75;;;;;;;;;;5028368;28;20112;-84
2022/12/01 04:33:17;;;;;;;37.05;12.90;;;;;;;;;;5026383;28;20029;-83
2022/12/01 04:35:42;;;;;;;30.30;11.45;;;;;;;;;;5024712;28;20057;-85
2022/12/01 04:38:08;;;;;;;30.83;10.95;;;;;;;;;;5022213;28;20078;-84
2022/12/01 04:40:33;;;;;;;38.05;12.93;;;;;;;;;;5023723;28;20017;-84
2022/12/01 04:42:58;;;;;;;39.42;12.68;;;;;;;;;;5024387;28;20045;-85
2022/12/01 04:45:24;;;;;;;31.88;12.00;;;;;;;;;;5031810;28;20068;-84
2022/12/01 04:47:51;;;;;;;40.33;14.02;;;;;;;;;;5027400;28;20045;-84
2022/12/01 04:50:16;;;;;;;34.78;13.13;;;;;;;;;;5026315;28;20030;-84
2022/12/01 04:52:42;;;;;;;37.40;12.73;;;;;;;;;;5023207;28;20838;-84
2022/12/01 04:55:08;;;;;;;28.10;10.38;;;;;;;;;;5028718;28;20559;-84
2022/12/01 04:57:33;;;;;;;30.75;9.48;;;;;;;;;;5043517;28;20067;-84
2022/12/01 04:59:58;;;;;;;37.88;11.48;;;;;;;;;;5028096;28;20124;-84
2022/12/01 05:02:24;;;;;;;41.33;13.95;;;;;;;;;;5028397;28;20120;-85
2022/12/01 05:04:49;;;;;;;33.85;12.13;;;;;;;;;;5024628;28;20136;-84
2022/12/01 05:07:14;;;;;;;34.75;12.50;;;;;;;;;;5037178;28;20028;-84
2022/12/01 05:09:40;;;;;;;33.72;13.38;;;;;;;;;;5027102;28;20052;-84
2022/12/01 05:12:05;;;;;;;34.65;13.45;;;;;;;;;;5026340;28;20037;-85
2022/12/01 05:14:31;;;;;;;37.85;13.23;;;;;;;;;;5026544;28;20068;-85
2022/12/01 05:16:57;;;;;;;45.95;14.48;;;;;;;;;;5027292;28;20459;-85
2022/12/01 05:22:26;;;;;;;43.20;15.40;;;;;;;;;;4999630;28;20078;-85
2022/12/01 05:24:51;;;;;;;36.25;11.48;;;;;;;;;;5005248;28;20065;-85
2022/12/01 05:27:17;;;;;;;41.58;13.90;;;;;;;;;;5014393;28;20172;-84
2022/12/01 05:29:42;;;;;;;39.08;13.43;;;;;;;;;;5026014;28;20541;-85
2022/12/01 05:32:07;;;;;;;39.33;13.13;;;;;;;;;;5026033;28;20037;-85
2022/12/01 05:34:33;;;;;;;37.75;13.77;;;;;;;;;;5025842;28;20553;-85
2022/12/01 05:36:58;;;;;;;35.33;12.57;;;;;;;;;;5022458;28;20099;-84
2022/12/01 05:39:23;;;;;;;34.10;11.80;;;;;;;;;;5021668;28;20084;-84
2022/12/01 05:41:49;;;;;;;35.63;12.38;;;;;;;;;;5023976;28;20064;-84
2022/12/01 05:44:14;;;;;;;35.30;12.13;;;;;;;;;;5024525;28;20128;-86
2022/12/01 05:46:39;;;;;;;29.85;10.68;;;;;;;;;;5026008;28;20060;-82
2022/12/01 05:49:05;;;;;;;31.00;12.68;;;;;;;;;;5019509;28;20130;-85
2022/12/01 05:51:30;;;;;;;35.92;12.38;;;;;;;;;;5025997;28;20534;-85
2022/12/01 05:53:58;;;;;;;35.80;11.82;;;;;;;;;;5024897;28;20029;-85
2022/12/01 05:56:23;;;;;;;34.78;11.63;;;;;;;;;;5024195;28;20043;-85
2022/12/01 05:58:49;;;;;;;34.83;11.98;;;;;;;;;;5023871;28;20029;-85
2022/12/01 06:01:14;;;;;;;28.48;10.50;;;;;;;;;;5026742;28;20027;-85
2022/12/01 06:03:40;;;;;;;29.35;12.25;;;;;;;;;;5025664;28;20041;-86
2022/12/01 06:06:05;;;;;;;29.75;11.95;;;;;;;;;;5023697;28;20029;-85
2022/12/01 06:08:30;;;;;;;32.83;11.07;;;;;;;;;;5024426;28;20039;-85
2022/12/01 06:10:56;;;;;;;31.90;11.65;;;;;;;;;;5022978;28;20661;-85
2022/12/01 06:13:21;;;;;;;29.45;10.52;;;;;;;;;;5025628;28;20013;-85
2022/12/01 06:16:01;;;;;;;30.67;10.20;;;;;;;;;;5026439;28;20041;-85
2022/12/01 06:18:30;;;;;;;32.00;12.70;;;;;;;;;;5024979;28;20188;-85
2022/12/01 06:20:55;;;;;;;31.13;9.38;;;;;;;;;;5024801;28;20068;-85
2022/12/01 06:23:20;;;;;;;35.38;12.18;;;;;;;;;;5024869;28;20037;-85
2022/12/01 06:25:46;;;;;;;31.25;10.95;;;;;;;;;;5026314;28;20033;-85
2022/12/01 06:28:11;;;;;;;31.58;11.43;;;;;;;;;;5026005;28;20526;-85
2022/12/01 06:30:36;;;;;;;36.65;11.70;;;;;;;;;;5025388;28;20057;-85
2022/12/01 06:33:02;;;;;;;33.60;10.98;;;;;;;;;;5021806;28;20034;-86
2022/12/01 06:35:27;;;;;;;31.58;11.52;;;;;;;;;;5026466;28;20078;-85
2022/12/01 06:37:56;;;;;;;33.55;11.40;;;;;;;;;;5026372;28;20083;-85
2022/12/01 06:40:21;;;;;;;32.63;11.35;;;;;;;;;;5021840;28;20021;-85
2022/12/01 06:42:46;;;;;;;33.33;11.13;;;;;;;;;;5019803;28;20051;-85
2022/12/01 06:45:12;;;;;;;26.77;9.95;;;;;;;;;;5013684;28;20093;-85
2022/12/01 06:47:37;;;;;;;29.83;10.50;;;;;;;;;;5025107;28;20041;-85
2022/12/01 06:50:06;;;;;;;34.75;12.25;;;;;;;;;;5021144;28;20061;-85
2022/12/01 06:52:32;;;;;;;30.25;10.88;;;;;;;;;;5026284;28;20041;-85
2022/12/01 06:54:59;;;;;;;38.28;13.13;;;;;;;;;;5023539;28;20061;-85
2022/12/01 06:57:24;;;;;;;27.77;9.68;;;;;;;;;;5026202;28;20670;-85
2022/12/01 06:59:49;;;;;;;35.47;12.93;;;;;;;;;;5025389;28;20025;-84
2022/12/01 07:02:15;;;;;;;37.67;12.93;;;;;;;;;;5024408;28;20028;-85
2022/12/01 07:04:41;;;;;;;33.97;11.52;;;;;;;;;;5021868;28;20029;-84
2022/12/01 07:07:06;;;;;;;36.42;12.48;;;;;;;;;;5029493;28;20095;-85
2022/12/01 07:09:32;;;;;;;31.52;12.57;;;;;;;;;;5031480;28;20365;-84
2022/12/01 07:11:57;;;;;;;40.97;12.63;;;;;;;;;;5031577;28;20657;-85
2022/12/01 07:14:25;;;;;;;45.60;15.13;;;;;;;;;;5030549;28;20465;-82
2022/12/01 07:16:50;;;;;;;33.45;11.43;;;;;;;;;;5020024;28;20079;-86
2022/12/01 07:19:16;;;;;;;32.92;11.13;;;;;;;;;;5031151;28;20056;-85
2022/12/01 07:21:41;;;;;;;34.08;12.35;;;;;;;;;;5031082;28;20060;-86
2022/12/01 07:24:07;;;;;;;36.65;12.13;;;;;;;;;;5030058;28;20495;-85
2022/12/01 07:26:32;;;;;;;38.30;12.77;;;;;;;;;;5027996;28;20037;-86
2022/12/01 07:28:57;;;;;;;35.47;12.40;;;;;;;;;;5031394;28;20120;-85
2022/12/01 07:31:23;;;;;;;38.63;12.93;;;;;;;;;;5032352;28;20028;-84
2022/12/01 07:33:48;;;;;;;34.95;11.25;;;;;;;;;;5030217;28;20033;-85
2022/12/01 07:36:13;;;;;;;33.70;11.50;;;;;;;;;;5045561;28;20029;-85
2022/12/01 07:38:39;;;;;;;28.65;10.50;;;;;;;;;;5026375;28;20100;-84
2022/12/01 07:41:10;;;;;;;35.80;11.73;;;;;;;;;;5016997;28;20026;-85
2022/12/01 07:43:36;;;;;;;36.97;12.50;;;;;;;;;;5029848;28;20561;-84
2022/12/01 07:46:11;;;;;;;36.72;11.05;;;;;;;;;;5016843;28;20061;-84
2022/12/01 07:48:37;;;;;;;39.63;11.45;;;;;;;;;;5026900;28;20584;-85
2022/12/01 07:51:04;;;;;;;37.13;11.27;;;;;;;;;;5029741;28;20037;-84
2022/12/01 07:53:30;;;;;;;31.20;11.27;;;;;;;;;;5029277;28;20524;-85
2022/12/01 07:55:55;;;;;;;33.00;11.80;;;;;;;;;;5028553;28;20017;-84
2022/12/01 07:58:21;;;;;;;38.67;13.45;;;;;;;;;;5017901;28;20020;-83
2022/12/01 08:00:46;;;;;;;37.78;11.80;;;;;;;;;;5040380;28;20048;-83
2022/12/01 08:03:12;;;;;;;29.15;10.75;;;;;;;;;;5025257;28;20172;-84
2022/12/01 08:05:37;;;;;;;30.75;11.40;;;;;;;;;;5025385;28;20533;-84
2022/12/01 08:08:03;;;;;;;39.97;12.20;;;;;;;;;;5029122;28;20033;-83
2022/12/01 08:10:28;;;;;;;38.60;12.38;;;;;;;;;;5028604;28;20102;-83
2022/12/01 08:12:53;;;;;;;34.65;11.98;;;;;;;;;;5027608;28;20128;-83
2022/12/01 08:15:19;;;;;;;35.60;12.18;;;;;;;;;;5028947;28;20410;-83
2022/12/01 08:17:44;;;;;;;36.85;13.15;;;;;;;;;;5044150;28;20041;-84
2022/12/01 08:20:10;;;;;;;40.28;13.45;;;;;;;;;;5020022;28;20029;-83
2022/12/01 08:22:35;;;;;;;36.83;12.18;;;;;;;;;;5018951;28;20823;-83
2022/12/01 08:25:01;;;;;;;42.58;13.88;;;;;;;;;;5024970;28;20045;-82
2022/12/01 08:27:26;;;;;;;38.45;13.00;;;;;;;;;;5016365;28;20053;-84
2022/12/01 08:29:51;;;;;;;40.22;13.40;;;;;;;;;;5015248;28;20407;-83
2022/12/01 08:32:17;;;;;;;38.75;13.05;;;;;;;;;;5017598;28;20112;-84
2022/12/01 08:34:42;;;;;;;31.70;10.82;;;;;;;;;;5018978;28;20847;-83
2022/12/01 08:37:08;;;;;;;41.00;13.07;;;;;;;;;;5025086;28;20029;-83
2022/12/01 08:39:33;;;;;;;42.88;12.30;;;;;;;;;;5023750;28;20036;-83
2022/12/01 08:41:58;;;;;;;36.15;11.40;;;;;;;;;;5021455;28;20604;-82
2022/12/01 08:44:24;;;;;;;37.65;12.20;;;;;;;;;;5018788;28;20033;-83
2022/12/01 08:46:49;;;;;;;35.45;12.00;;;;;;;;;;5023758;28;20078;-78
2022/12/01 08:49:14;;;;;;;41.08;13.70;;;;;;;;;;5020906;28;20022;-83
2022/12/01 08:51:40;;;;;;;34.95;12.38;;;;;;;;;;5027480;28;20068;-83
2022/12/01 08:54:05;;;;;;;35.10;11.73;;;;;;;;;;5026544;28;20021;-83
2022/12/01 08:56:39;;;;;;;34.00;10.93;;;;;;;;;;5021152;28;20029;-83
2022/12/01 08:59:05;;;;;;;28.30;10.70;;;;;;;;;;5026292;28;20037;-83
2022/12/01 09:01:31;;;;;;;36.88;12.85;;;;;;;;;;5023727;28;20036;-83
2022/12/01 09:04:04;;;;;;;36.20;11.82;;;;;;;;;;5019678;28;20468;-84
2022/12/01 09:06:39;;;;;;;35.92;10.98;;;;;;;;;;5017097;28;20040;-83
2022/12/01 09:09:05;;;;;;;38.30;12.50;;;;;;;;;;5021850;28;20053;-83
2022/12/01 09:11:31;;;;;;;32.25;11.05;;;;;;;;;;5017776;28;20068;-83
2022/12/01 09:13:59;;;;;;;38.08;12.65;;;;;;;;;;5027538;28;20033;-83
2022/12/01 09:16:24;;;;;;;33.85;11.85;;;;;;;;;;5022215;28;20095;-84
2022/12/01 09:18:50;;;;;;;37.42;13.10;;;;;;;;;;5010695;28;20686;-84
2022/12/01 09:21:24;;;;;;;33.97;11.60;;;;;;;;;;5022871;28;20506;-83
2022/12/01 09:23:50;;;;;;;37.53;12.77;;;;;;;;;;5019534;28;20449;-83
2022/12/01 09:26:17;;;;;;;25.10;10.68;;;;;;;;;;5022229;28;20029;-84
2022/12/01 09:28:48;;;;;;;31.48;12.32;;;;;;;;;;5016456;28;20168;-79
2022/12/01 09:31:15;;;;;;;28.02;11.02;;;;;;;;;;5020143;28;20546;-78
2022/12/01 09:33:41;;;;;;;31.95;11.43;;;;;;;;;;5019630;28;20065;-79
2022/12/01 09:36:07;;;;;;;39.63;14.18;;;;;;;;;;5022190;28;20034;-79
2022/12/01 09:38:35;;;;;;;38.55;13.63;;;;;;;;;;5019335;28;20033;-82
2022/12/01 09:41:24;;;;;;;37.80;13.13;;;;;;;;;;5022273;28;20033;-82
2022/12/01 09:43:55;;;;;;;33.33;12.65;;;;;;;;;;5022380;28;20040;-83
2022/12/01 09:46:26;;;;;;;33.13;11.48;;;;;;;;;;5019148;28;20041;-85
2022/12/01 09:48:56;;;;;;;33.65;13.20;;;;;;;;;;5024699;28;20057;-88
2022/12/01 09:51:25;;;;;;;37.60;13.18;;;;;;;;;;5019315;28;20613;-85
2022/12/01 09:53:55;;;;;;;35.47;12.43;;;;;;;;;;5018987;28;20061;-88
2022/12/01 09:56:28;;;;;;;35.40;14.35;;;;;;;;;;5025571;28;21047;-85
2022/12/01 09:58:58;;;;;;;;;;;;;;;;;;5025225;28;20104;-84
2022/12/01 10:01:33;;;;;;;34.05;11.75;;;;;;;;;;5037530;28;19908;-85
2022/12/01 10:04:08;;;;;;;34.42;13.02;;;;;;;;;;5010325;28;20656;-88
2022/12/01 10:06:50;;;;;;;34.70;12.15;;;;;;;;;;5027688;28;20033;-91
2022/12/01 10:09:22;;;;;;;43.08;14.80;;;;;;;;;;5042149;28;20060;-87
2022/12/01 10:11:50;;;;;;;35.67;12.43;;;;;;;;;;5041412;28;20029;-86
2022/12/01 10:14:18;;;;;;;41.50;13.65;;;;;;;;;;5021276;28;20025;-82
2022/12/01 10:16:49;;;;;;;41.63;13.63;;;;;;;;;;5023073;28;20029;-82
2022/12/01 10:19:37;;;;;;;45.67;14.20;;;;;;;;;;5022050;28;20101;-78
2022/12/01 10:22:42;;;;;;;38.30;14.32;;;;;;;;;;5013169;28;20048;-83
2022/12/01 10:25:31;;;;;;;31.05;12.30;;;;;;;;;;5019868;28;20529;-85
2022/12/01 10:28:09;;;;;;;37.88;13.55;;;;;;;;;;5022894;28;20380;-84
2022/12/01 10:30:45;;;;;;;41.35;14.93;;;;;;;;;;5018419;28;20037;-87
2022/12/01 10:33:25;;;;;;;40.60;14.85;;;;;;;;;;5019025;28;20033;-87
2022/12/01 10:35:52;;;;;;;31.27;12.73;;;;;;;;;;5021674;28;20040;-80
2022/12/01 10:38:24;;;;;;;40.70;14.55;;;;;;;;;;5018219;28;20456;-80
2022/12/01 10:40:50;;;;;;;32.00;12.77;;;;;;;;;;5013987;28;20072;-81
2022/12/01 10:43:15;;;;;;;35.63;13.73;;;;;;;;;;5018480;28;20017;-80
2022/12/01 10:45:43;;;;;;;34.70;12.45;;;;;;;;;;5034163;28;20033;-79
2022/12/01 10:48:20;;;;;;;36.17;13.40;;;;;;;;;;5023324;28;20116;-79
2022/12/01 10:50:49;;;;;;;39.15;12.88;;;;;;;;;;5024426;28;20518;-79
2022/12/01 10:53:27;;;;;;;41.08;15.27;;;;;;;;;;5024582;28;20061;-79
2022/12/01 10:56:11;;;;;;;37.08;13.68;;;;;;;;;;5017748;28;20087;-79
2022/12/01 10:58:42;;;;;;;35.70;13.30;;;;;;;;;;5021066;28;20010;-78
2022/12/01 11:01:15;;;;;;;37.28;13.32;;;;;;;;;;5020517;28;20490;-80
2022/12/01 11:03:41;;;;;;;31.35;12.00;;;;;;;;;;5013358;28;20054;-84
2022/12/01 11:06:07;;;;;;;35.92;14.27;;;;;;;;;;5016711;28;20520;-83
2022/12/01 11:08:42;;;;;;;45.20;16.50;;;;;;;;;;5010404;28;20080;-84
2022/12/01 11:11:27;;;;;;;37.88;13.80;;;;;;;;;;5017845;28;20452;-84
2022/12/01 11:13:54;;;;;;;40.63;15.05;;;;;;;;;;5023686;28;20399;-84
2022/12/01 11:16:42;;;;;;;37.88;14.10;;;;;;;;;;5024705;28;20021;-84
2022/12/01 11:19:27;;;;;;;46.28;14.80;;;;;;;;;;5026122;28;20056;-85
2022/12/01 11:21:58;;;;;;;35.17;13.13;;;;;;;;;;5024908;28;20522;-84
2022/12/01 11:24:32;;;;;;;38.75;12.52;;;;;;;;;;5024662;28;20045;-84
2022/12/01 11:26:59;;;;;;;44.78;14.82;;;;;;;;;;5023300;28;20073;-84
2022/12/01 11:29:35;;;;;;;36.85;13.68;;;;;;;;;;5022103;28;20075;-84
2022/12/01 11:32:14;;;;;;;37.20;13.38;;;;;;;;;;5016462;28;20506;-84
2022/12/01 11:34:40;;;;;;;36.22;14.27;;;;;;;;;;5025468;28;20022;-84
2022/12/01 11:37:14;;;;;;;36.42;13.48;;;;;;;;;;5023365;28;20499;-84
2022/12/01 11:39:43;;;;;;;37.53;13.13;;;;;;;;;;5019759;28;20033;-79
2022/12/01 11:42:29;;;;;;;34.72;12.65;;;;;;;;;;5022950;28;20041;-85
2022/12/01 11:45:16;;;;;;;36.28;12.85;;;;;;;;;;5023798;28;20037;-83
2022/12/01 11:47:58;;;;;;;31.00;12.32;;;;;;;;;;5022984;28;20054;-84
2022/12/01 11:50:28;;;;;;;41.95;13.60;;;;;;;;;;5020818;28;20538;-84
2022/12/01 11:52:54;;;;;;;32.08;12.57;;;;;;;;;;5024865;28;20458;-84
2022/12/01 11:55:22;;;;;;;38.05;14.25;;;;;;;;;;5028941;28;20020;-84
2022/12/01 11:57:53;;;;;;;35.63;11.98;;;;;;;;;;5027344;28;20037;-84
2022/12/01 12:00:25;;;;;;;31.65;13.10;;;;;;;;;;5027873;28;20068;-85
2022/12/01 12:03:12;;;;;;;40.08;12.38;;;;;;;;;;5028625;28;20458;-84
2022/12/01 12:05:57;;;;;;;32.08;11.93;;;;;;;;;;5027618;28;20134;-84
2022/12/01 12:08:40;;;;;;;36.38;12.23;;;;;;;;;;5022186;28;20041;-84
2022/12/01 12:11:18;;;;;;;31.55;12.02;;;;;;;;;;5033700;28;20041;-84
2022/12/01 12:13:55;;;;;;;28.23;11.43;;;;;;;;;;5033657;28;20028;-84
2022/12/01 12:16:59;;;;;;;34.08;11.32;;;;;;;;;;5030151;28;20478;-84
2022/12/01 12:19:37;;;;;;;;;;;;;;;;;;5036731;28;20132;-84
2022/12/01 12:22:39;;;;;;;31.42;12.05;;;;;;;;;;5022414;28;19947;-85
2022/12/01 12:25:23;;;;;;;32.45;11.50;;;;;;;;;;5026789;28;20590;-85
2022/12/01 12:28:04;;;;;;;28.67;10.98;;;;;;;;;;5028014;28;20052;-84
2022/12/01 12:30:35;;;;;;;27.40;11.80;;;;;;;;;;5026777;28;20172;-84
2022/12/01 12:33:10;;;;;;;28.83;11.18;;;;;;;;;;5021184;28;20033;-85
2022/12/01 12:36:01;;;;;;;32.60;11.85;;;;;;;;;;5027029;28;20033;-84
2022/12/01 12:38:45;;;;;;;31.52;10.32;;;;;;;;;;5023920;28;20734;-82
2022/12/01 12:41:32;;;;;;;34.15;10.82;;;;;;;;;;5018901;28;20116;-81
2022/12/01 12:44:18;;;;;;;32.33;11.55;;;;;;;;;;5017560;28;20521;-81
2022/12/01 12:47:09;;;;;;;28.50;11.90;;;;;;;;;;5023290;28;20541;-81
2022/12/01 12:49:43;;;;;;;28.63;11.93;;;;;;;;;;5016871;28;20554;-81
2022/12/01 12:52:14;;;;;;;24.50;10.88;;;;;;;;;;5022471;28;20399;-81
2022/12/01 12:54:46;;;;;;;33.05;12.50;;;;;;;;;;5022814;28;20037;-81
2022/12/01 12:57:29;;;;;;;27.52;11.52;;;;;;;;;;5020818;28;20540;-81
2022/12/01 12:59:57;;;;;;;32.80;12.52;;;;;;;;;;5018706;28;20036;-80
2022/12/01 13:02:31;;;;;;;32.28;12.13;;;;;;;;;;5018337;28;20929;-81
2022/12/01 13:04:59;;;;;;;26.17;11.00;;;;;;;;;;5022656;28;20049;-81
2022/12/01 13:07:54;;;;;;;30.52;13.00;;;;;;;;;;5022577;28;20025;-81
2022/12/01 13:10:41;;;;;;;25.80;10.30;;;;;;;;;;5017476;28;20030;-81
2022/12/01 13:13:23;;;;;;;26.67;10.30;;;;;;;;;;5019620;28;20096;-80
2022/12/01 13:15:51;;;;;;;30.92;11.52;;;;;;;;;;5019716;28;20060;-81
2022/12/01 13:18:19;;;;;;;31.10;10.80;;;;;;;;;;5020853;28;20068;-80
2022/12/01 13:20:45;;;;;;;32.50;11.65;;;;;;;;;;5019565;28;20151;-81
2022/12/01 13:23:18;;;;;;;32.20;10.55;;;;;;;;;;5021038;28;20598;-81
2022/12/01 13:25:51;;;;;;;33.30;12.88;;;;;;;;;;5021994;28;20379;-81
2022/12/01 13:28:23;;;;;;;26.25;10.13;;;;;;;;;;5018445;28;20108;-81
2022/12/01 13:30:59;;;;;;;26.88;11.55;;;;;;;;;;5020708;28;20064;-80
2022/12/01 13:33:25;;;;;;;25.23;10.40;;;;;;;;;;5018590;28;20038;-81
2022/12/01 13:35:52;;;;;;;25.63;10.88;;;;;;;;;;5002260;28;20047;-81
2022/12/01 13:38:21;;;;;;;21.80;9.48;;;;;;;;;;5034735;28;20469;-81
2022/12/01 13:40:47;;;;;;;21.70;9.23;;;;;;;;;;5018654;28;20045;-81
2022/12/01 13:43:19;;;;;;;23.30;8.57;;;;;;;;;;5021081;28;20029;-81
2022/12/01 13:45:46;;;;;;;23.05;9.32;;;;;;;;;;5018971;28;20037;-82
2022/12/01 13:48:48;;;;;;;22.58;9.23;;;;;;;;;;5023356;28;20041;-80
2022/12/01 13:51:14;;;;;;;21.92;8.77;;;;;;;;;;5031656;28;20674;-80
2022/12/01 13:53:54;;;;;;;24.98;9.82;;;;;;;;;;5023886;28;20148;-82
2022/12/01 13:56:19;;;;;;;23.00;9.88;;;;;;;;;;4974185;28;20506;-82
2022/12/01 13:58:50;;;;;;;23.00;8.55;;;;;;;;;;4991849;28;20045;-81
2022/12/01 14:01:21;;;;;;;21.15;9.35;;;;;;;;;;5007981;28;20165;-82
2022/12/01 14:04:09;;;;;;;31.58;11.40;;;;;;;;;;5005472;28;20045;-83
2022/12/01 14:06:48;;;;;;;26.15;10.07;;;;;;;;;;5006641;28;20040;-83
2022/12/01 14:09:22;;;;;;;28.02;9.98;;;;;;;;;;5018567;28;20049;-81
2022/12/01 14:12:01;;;;;;;26.33;10.40;;;;;;;;;;5020599;28;20125;-81
2022/12/01 14:14:33;;;;;;;28.30;9.98;;;;;;;;;;5014227;28;20046;-82
2022/12/01 14:17:01;;;;;;;28.38;10.30;;;;;;;;;;5024742;28;20044;-81
2022/12/01 14:19:38;;;;;;;27.48;10.55;;;;;;;;;;5035743;28;20026;-80
2022/12/01 14:22:06;;;;;;;28.98;10.00;;;;;;;;;;5012515;28;20029;-81
2022/12/01 14:24:39;;;;;;;26.75;10.50;;;;;;;;;;5022849;28;20541;-80
2022/12/01 14:27:06;;;;;;;28.38;9.25;;;;;;;;;;5020943;28;20102;-82
2022/12/01 14:29:34;;;;;;;24.27;9.43;;;;;;;;;;5025670;28;20514;-81
2022/12/01 14:31:59;;;;;;;28.40;9.52;;;;;;;;;;5013405;28;20041;-80
2022/12/01 14:34:28;;;;;;;27.15;10.27;;;;;;;;;;5002707;28;20068;-80
2022/12/01 14:37:01;;;;;;;30.83;10.18;;;;;;;;;;5016544;28;20031;-84
2022/12/01 14:39:55;;;;;;;28.40;9.70;;;;;;;;;;5017607;28;20041;-82
2022/12/01 14:45:44;;;;;;;25.55;8.55;;;;;;;;;;5007328;28;20336;-80
2022/12/01 14:48:14;;;;;;;27.58;10.82;;;;;;;;;;5018350;28;20111;-80
2022/12/01 14:50:45;;;;;;;27.80;10.93;;;;;;;;;;5013908;28;20061;-79